createdAt,value
2022-11-23T00:00:40.076Z,87.70
2022-11-23T00:03:49.016Z,87.70
2022-11-23T00:06:38.019Z,87.70
2022-11-23T00:09:27.660Z,87.70
2022-11-23T00:12:15.962Z,87.80
2022-11-23T00:15:05.522Z,87.80
2022-11-23T00:17:53.990Z,87.80
2022-11-23T00:20:42.405Z,87.80
2022-11-23T00:23:31.024Z,87.80
2022-11-23T00:26:21.311Z,87.80
2022-11-23T00:29:09.882Z,87.90
2022-11-23T00:31:59.193Z,87.70
2022-11-23T00:34:47.628Z,87.80
2022-11-23T00:37:36.196Z,87.90
2022-11-23T00:40:24.658Z,87.80
2022-11-23T00:43:14.058Z,87.90
2022-11-23T00:46:11.441Z,87.80
2022-11-23T00:49:00.812Z,87.80
2022-11-23T00:51:49.348Z,87.80
2022-11-23T00:54:38.986Z,87.80
2022-11-23T00:57:28.777Z,87.70
2022-11-23T01:00:19.518Z,87.70
2022-11-23T01:03:08.049Z,87.80
2022-11-23T01:05:56.529Z,87.80
2022-11-23T01:08:49.243Z,87.70
2022-11-23T01:11:37.377Z,87.80
2022-11-23T01:14:26.573Z,88.20
2022-11-23T01:17:16.537Z,87.70
2022-11-23T01:20:06.213Z,87.70
2022-11-23T01:22:54.706Z,87.80
2022-11-23T01:25:43.223Z,87.80
2022-11-23T01:28:31.582Z,87.80
2022-11-23T01:31:22.418Z,87.70
2022-11-23T01:34:14.707Z,87.80
2022-11-23T01:37:03.023Z,87.80
2022-11-23T01:39:51.396Z,87.80
2022-11-23T01:42:44.618Z,87.80
2022-11-23T01:45:39.550Z,87.80
2022-11-23T01:48:32.014Z,87.70
2022-11-23T01:51:25.473Z,87.70
2022-11-23T01:54:17.670Z,87.70
2022-11-23T01:57:10.335Z,87.70
2022-11-23T01:59:59.842Z,87.70
2022-11-23T02:02:54.970Z,87.70
2022-11-23T02:05:47.893Z,87.70
2022-11-23T02:08:38.837Z,87.70
2022-11-23T02:11:27.576Z,87.80
2022-11-23T02:14:20.488Z,87.80
2022-11-23T02:17:11.481Z,87.90
2022-11-23T02:20:06.189Z,87.80
2022-11-23T02:23:09.497Z,87.80
2022-11-23T02:26:06.239Z,87.80
2022-11-23T02:28:59.459Z,87.80
2022-11-23T02:31:48.221Z,87.80
2022-11-23T02:34:36.632Z,87.70
2022-11-23T02:37:27.059Z,87.80
2022-11-23T02:40:27.057Z,87.80
2022-11-23T02:43:17.705Z,87.80
2022-11-23T02:46:07.910Z,87.80
2022-11-23T02:48:56.531Z,87.80
2022-11-23T02:51:44.772Z,87.80
2022-11-23T02:54:32.733Z,87.80
2022-11-23T02:57:20.869Z,87.70
2022-11-23T03:00:12.405Z,87.80
2022-11-23T03:03:02.561Z,87.90
2022-11-23T03:05:50.882Z,87.90
2022-11-23T03:08:39.382Z,87.90
2022-11-23T03:11:27.938Z,87.90
2022-11-23T03:14:16.429Z,87.90
2022-11-23T03:17:20.872Z,87.90
2022-11-23T03:20:10.321Z,87.90
2022-11-23T03:23:02.693Z,87.90
2022-11-23T03:25:57.322Z,87.90
2022-11-23T03:28:46.752Z,87.90
2022-11-23T03:31:36.613Z,87.90
2022-11-23T03:34:28.854Z,87.90
2022-11-23T03:37:18.022Z,88.00
2022-11-23T03:40:07.082Z,88.00
2022-11-23T03:43:14.289Z,88.00
2022-11-23T03:46:03.065Z,87.90
2022-11-23T03:48:51.709Z,87.90
2022-11-23T03:51:41.507Z,87.90
2022-11-23T03:54:29.673Z,88.00
2022-11-23T03:57:17.870Z,88.00
2022-11-23T04:00:08.486Z,88.00
2022-11-23T04:03:01.733Z,88.10
2022-11-23T04:06:08.398Z,88.00
2022-11-23T04:09:20.588Z,88.00
2022-11-23T04:12:29.145Z,87.90
2022-11-23T04:15:17.628Z,88.00
2022-11-23T04:18:06.508Z,88.00
2022-11-23T04:20:54.858Z,88.00
2022-11-23T04:23:43.924Z,88.00
2022-11-23T04:26:36.254Z,88.00
2022-11-23T04:29:25.310Z,88.00
2022-11-23T04:32:15.812Z,88.00
2022-11-23T04:35:04.161Z,88.00
2022-11-23T04:37:53.240Z,88.10
2022-11-23T04:40:44.050Z,88.00
2022-11-23T04:43:34.885Z,88.00
2022-11-23T04:46:24.933Z,88.00
2022-11-23T04:49:13.653Z,88.00
2022-11-23T04:52:02.876Z,87.90
2022-11-23T04:54:56.830Z,88.00
2022-11-23T04:57:46.105Z,88.00
2022-11-23T05:00:35.830Z,88.00
2022-11-23T05:03:25.839Z,88.10
2022-11-23T05:06:14.225Z,88.00
2022-11-23T05:09:03.751Z,88.00
2022-11-23T05:12:05.236Z,88.00
2022-11-23T05:14:55.022Z,88.00
2022-11-23T05:17:54.020Z,88.00
2022-11-23T05:20:47.380Z,87.90
2022-11-23T05:23:37.434Z,87.90
2022-11-23T05:26:26.929Z,88.10
2022-11-23T05:29:15.208Z,88.00
2022-11-23T05:32:04.399Z,88.00
2022-11-23T05:34:54.202Z,88.00
2022-11-23T05:37:44.320Z,88.00
2022-11-23T05:40:34.252Z,88.00
2022-11-23T05:43:24.519Z,88.00
2022-11-23T05:46:12.768Z,88.00
2022-11-23T05:49:01.521Z,88.00
2022-11-23T05:51:56.209Z,88.10
2022-11-23T05:54:46.025Z,88.10
2022-11-23T05:57:35.992Z,88.10
2022-11-23T06:00:27.230Z,88.20
2022-11-23T06:03:20.616Z,88.10
2022-11-23T06:06:09.293Z,88.10
2022-11-23T06:09:03.365Z,88.10
2022-11-23T06:11:52.953Z,88.20
2022-11-23T06:14:41.782Z,88.10
2022-11-23T06:17:31.189Z,88.10
2022-11-23T06:20:24.073Z,88.20
2022-11-23T06:23:22.601Z,88.10
2022-11-23T06:26:12.391Z,88.10
2022-11-23T06:29:02.454Z,88.10
2022-11-23T06:31:51.009Z,88.10
2022-11-23T06:34:39.397Z,88.10
2022-11-23T06:37:27.994Z,88.20
2022-11-23T06:40:17.416Z,88.20
2022-11-23T06:43:07.058Z,88.20
2022-11-23T06:46:04.980Z,88.30
2022-11-23T06:48:54.592Z,88.20
2022-11-23T06:51:43.204Z,88.20
2022-11-23T06:54:31.850Z,88.20
2022-11-23T06:57:21.964Z,88.20
2022-11-23T07:00:13.910Z,88.20
2022-11-23T07:03:04.048Z,88.20
2022-11-23T07:06:00.544Z,88.20
2022-11-23T07:08:50.992Z,88.20
2022-11-23T07:11:48.882Z,88.30
2022-11-23T07:14:38.804Z,88.30
2022-11-23T07:17:28.802Z,88.20
2022-11-23T07:20:18.179Z,88.20
2022-11-23T07:23:09.949Z,88.20
2022-11-23T07:26:00.912Z,88.20
2022-11-23T07:28:50.007Z,88.20
2022-11-23T07:31:38.273Z,88.20
2022-11-23T07:34:29.306Z,88.10
2022-11-23T07:37:18.298Z,88.20
2022-11-23T07:40:07.435Z,88.20
2022-11-23T07:43:01.301Z,88.30
2022-11-23T07:45:49.640Z,88.30
2022-11-23T07:48:38.852Z,88.30
2022-11-23T07:51:28.773Z,88.30
2022-11-23T07:54:23.307Z,88.50
2022-11-23T07:57:12.347Z,88.50
2022-11-23T08:00:00.701Z,88.50
2022-11-23T08:03:19.297Z,88.50
2022-11-23T08:05:58.636Z,88.40
2022-11-23T08:08:48.179Z,88.50
2022-11-23T08:11:36.462Z,89.00
2022-11-23T08:14:25.151Z,88.50
2022-11-23T08:17:13.467Z,88.40
2022-11-23T08:20:01.821Z,88.50
2022-11-23T08:22:50.274Z,88.40
2022-11-23T08:25:41.378Z,88.50
2022-11-23T08:28:29.614Z,88.50
2022-11-23T08:31:17.869Z,88.40
2022-11-23T08:34:06.487Z,88.40
2022-11-23T08:36:54.931Z,88.40
2022-11-23T08:39:43.389Z,88.40
2022-11-23T08:42:34.040Z,88.40
2022-11-23T08:45:22.992Z,88.40
2022-11-23T08:48:11.692Z,88.50
2022-11-23T08:51:01.006Z,88.40
2022-11-23T08:53:49.927Z,88.40
2022-11-23T08:56:38.469Z,88.40
2022-11-23T08:59:28.456Z,88.50
2022-11-23T09:02:17.057Z,88.40
2022-11-23T09:05:06.989Z,88.40
2022-11-23T09:07:55.398Z,88.50
2022-11-23T09:10:43.577Z,88.40
2022-11-23T09:13:32.188Z,88.40
2022-11-23T09:16:23.709Z,88.40
2022-11-23T09:19:14.708Z,88.40
2022-11-23T09:22:03.608Z,88.30
2022-11-23T09:24:52.045Z,88.40
2022-11-23T09:27:39.987Z,88.40
2022-11-23T09:30:28.879Z,88.50
2022-11-23T09:33:18.648Z,88.50
2022-11-23T09:36:07.574Z,88.50
2022-11-23T09:38:57.282Z,88.50
2022-11-23T09:42:24.568Z,88.60
2022-11-23T09:45:23.985Z,88.60
2022-11-23T09:48:39.000Z,88.60
2022-11-23T09:51:27.518Z,88.70
2022-11-23T09:54:27.855Z,88.70
2022-11-23T09:57:20.979Z,88.60
2022-11-23T10:00:21.455Z,88.60
2022-11-23T10:03:15.909Z,88.60
2022-11-23T10:06:14.733Z,88.70
2022-11-23T10:09:14.289Z,88.70
2022-11-23T10:12:37.219Z,88.60
2022-11-23T10:15:33.419Z,88.70
2022-11-23T10:18:36.382Z,88.70
2022-11-23T10:21:35.410Z,88.60
2022-11-23T10:24:30.511Z,88.60
2022-11-23T10:27:20.975Z,88.70
2022-11-23T10:30:14.055Z,88.60
2022-11-23T10:33:06.735Z,88.60
2022-11-23T10:35:55.246Z,88.60
2022-11-23T10:38:45.351Z,88.70
2022-11-23T10:41:33.820Z,88.70
2022-11-23T10:44:33.387Z,88.60
2022-11-23T10:47:40.953Z,88.70
2022-11-23T10:50:32.558Z,88.60
2022-11-23T10:53:26.085Z,88.70
2022-11-23T10:56:15.740Z,88.70
2022-11-23T10:59:04.748Z,88.80
2022-11-23T11:02:02.560Z,88.70
2022-11-23T11:04:58.490Z,88.70
2022-11-23T11:07:47.813Z,88.70
2022-11-23T11:10:41.920Z,88.80
2022-11-23T11:13:34.100Z,88.80
2022-11-23T11:16:27.619Z,88.70
2022-11-23T11:19:29.261Z,88.80
2022-11-23T11:22:28.881Z,88.70
2022-11-23T11:25:31.025Z,88.70
2022-11-23T11:28:25.957Z,88.70
2022-11-23T11:31:42.877Z,88.80
2022-11-23T11:34:38.372Z,88.70
2022-11-23T11:37:35.543Z,88.80
2022-11-23T11:40:31.163Z,88.80
2022-11-23T11:43:27.143Z,88.80
2022-11-23T11:46:29.503Z,88.90
2022-11-23T11:49:23.336Z,88.80
2022-11-23T11:52:15.534Z,88.80
2022-11-23T11:55:08.953Z,88.80
2022-11-23T11:58:03.996Z,88.80
2022-11-23T12:00:57.742Z,88.90
2022-11-23T12:03:53.815Z,88.90
2022-11-23T12:06:49.610Z,89.00
2022-11-23T12:09:42.602Z,89.00
2022-11-23T12:12:31.154Z,89.00
2022-11-23T12:18:42.083Z,88.90
2022-11-23T12:21:51.375Z,88.90
2022-11-23T12:24:56.239Z,88.80
2022-11-23T12:27:57.536Z,88.90
2022-11-23T12:30:55.633Z,88.80
2022-11-23T12:33:58.722Z,88.90
2022-11-23T12:37:19.209Z,88.70
2022-11-23T12:40:31.328Z,88.90
2022-11-23T12:43:25.385Z,88.80
2022-11-23T12:46:24.859Z,88.80
2022-11-23T12:49:23.552Z,88.80
2022-11-23T12:52:36.877Z,88.80
2022-11-23T12:55:32.101Z,88.80
2022-11-23T12:58:26.472Z,88.80
2022-11-23T13:01:21.393Z,88.80
2022-11-23T13:04:33.379Z,88.80
2022-11-23T13:07:54.660Z,88.80
2022-11-23T13:11:12.587Z,88.80
2022-11-23T13:14:14.999Z,88.80
2022-11-23T13:17:19.711Z,88.80
2022-11-23T13:20:31.026Z,88.90
2022-11-23T13:23:21.768Z,88.80
2022-11-23T13:26:19.650Z,88.80
2022-11-23T13:29:56.126Z,88.80
2022-11-23T13:32:55.200Z,88.80
2022-11-23T13:36:02.120Z,88.90
2022-11-23T13:38:54.011Z,88.90
2022-11-23T13:42:01.347Z,88.90
2022-11-23T13:44:49.635Z,88.90
2022-11-23T13:47:42.312Z,89.00
2022-11-23T13:50:37.096Z,88.90
2022-11-23T13:53:29.409Z,88.90
2022-11-23T13:56:34.730Z,88.90
2022-11-23T13:59:31.551Z,88.80
2022-11-23T14:02:30.614Z,88.80
2022-11-23T14:05:58.114Z,88.70
2022-11-23T14:08:49.173Z,88.80
2022-11-23T14:11:41.172Z,88.80
2022-11-23T14:14:38.007Z,88.80
2022-11-23T14:17:59.011Z,88.70
2022-11-23T14:21:14.730Z,88.70
2022-11-23T14:24:34.086Z,88.70
2022-11-23T14:27:49.173Z,88.70
2022-11-23T14:30:57.881Z,88.60
2022-11-23T14:33:54.016Z,88.70
2022-11-23T14:36:49.065Z,88.80
2022-11-23T14:39:59.582Z,88.80
2022-11-23T14:42:54.562Z,88.70
2022-11-23T14:45:43.151Z,88.70
2022-11-23T14:48:34.106Z,88.70
2022-11-23T14:51:26.799Z,88.70
2022-11-23T14:54:17.438Z,88.70
2022-11-23T14:57:06.066Z,88.80
2022-11-23T14:59:58.633Z,88.70
2022-11-23T15:02:47.251Z,88.80
2022-11-23T15:05:39.696Z,88.80
2022-11-23T15:08:32.121Z,88.70
2022-11-23T15:11:24.665Z,88.60
2022-11-23T15:14:28.211Z,88.60
2022-11-23T15:17:18.810Z,88.70
2022-11-23T15:20:12.682Z,88.60
2022-11-23T15:23:03.591Z,88.50
2022-11-23T15:25:54.042Z,88.50
2022-11-23T15:28:42.471Z,88.60
2022-11-23T15:31:32.611Z,88.50
2022-11-23T15:34:23.255Z,88.60
2022-11-23T15:37:12.449Z,88.60
2022-11-23T15:40:02.891Z,88.50
2022-11-23T15:42:52.878Z,88.50
2022-11-23T15:46:02.328Z,89.10
2022-11-23T15:48:52.287Z,88.50
2022-11-23T15:51:42.850Z,88.50
2022-11-23T15:54:35.976Z,88.60
2022-11-23T15:57:28.297Z,88.60
2022-11-23T16:00:25.131Z,88.50
2022-11-23T16:03:31.360Z,88.60
2022-11-23T16:06:25.969Z,88.60
2022-11-23T16:09:53.976Z,88.50
2022-11-23T16:12:50.441Z,88.50
2022-11-23T16:15:44.353Z,88.60
2022-11-23T16:18:33.246Z,88.60
2022-11-23T16:21:23.307Z,88.60
2022-11-23T16:24:20.444Z,88.60
2022-11-23T16:27:16.187Z,88.60
2022-11-23T16:30:06.309Z,88.50
2022-11-23T16:32:54.916Z,88.50
2022-11-23T16:35:43.405Z,88.40
2022-11-23T16:38:32.118Z,88.50
2022-11-23T16:41:20.958Z,88.60
2022-11-23T16:44:09.561Z,88.50
2022-11-23T16:47:23.580Z,88.50
2022-11-23T16:50:14.275Z,88.50
2022-11-23T16:53:09.977Z,88.50
2022-11-23T16:55:59.768Z,88.50
2022-11-23T16:58:49.193Z,88.60
2022-11-23T17:01:40.298Z,88.60
2022-11-23T17:04:30.691Z,88.60
2022-11-23T17:07:19.310Z,88.60
2022-11-23T17:10:17.569Z,88.60
2022-11-23T17:13:10.985Z,88.70
2022-11-23T17:16:01.010Z,88.70
2022-11-23T17:18:49.583Z,88.60
2022-11-23T17:21:39.271Z,88.70
2022-11-23T17:24:27.678Z,88.60
2022-11-23T17:27:18.926Z,88.70
2022-11-23T17:30:13.861Z,88.70
2022-11-23T17:33:02.761Z,88.70
2022-11-23T17:35:52.890Z,88.60
2022-11-23T17:38:47.323Z,88.70
2022-11-23T17:41:35.936Z,88.70
2022-11-23T17:44:24.843Z,88.60
2022-11-23T17:47:22.493Z,88.70
2022-11-23T17:50:17.868Z,88.70
2022-11-23T17:53:06.666Z,88.60
2022-11-23T17:56:00.380Z,88.70
2022-11-23T17:58:49.020Z,88.70
2022-11-23T18:01:37.661Z,88.60
2022-11-23T18:04:27.258Z,88.70
2022-11-23T18:07:17.412Z,88.70
2022-11-23T18:10:06.182Z,88.60
2022-11-23T18:12:55.942Z,88.70
2022-11-23T18:15:44.654Z,88.70
2022-11-23T18:18:34.071Z,88.80
2022-11-23T18:21:22.774Z,88.80
2022-11-23T18:24:10.935Z,88.80
2022-11-23T18:26:59.329Z,88.70
2022-11-23T18:29:50.474Z,88.80
2022-11-23T18:32:39.281Z,88.70
2022-11-23T18:35:27.665Z,88.70
2022-11-23T18:38:15.975Z,88.70
2022-11-23T18:41:04.537Z,88.70
2022-11-23T18:43:52.748Z,88.70
2022-11-23T18:46:45.055Z,88.80
2022-11-23T18:49:33.717Z,88.70
2022-11-23T18:52:22.481Z,88.60
2022-11-23T18:55:11.231Z,88.70
2022-11-23T18:57:59.377Z,88.80
2022-11-23T19:00:47.742Z,88.80
2022-11-23T19:03:38.032Z,88.70
2022-11-23T19:06:26.722Z,88.70
2022-11-23T19:09:15.705Z,88.70
2022-11-23T19:12:04.945Z,88.70
2022-11-23T19:14:53.275Z,88.70
2022-11-23T19:17:41.575Z,88.70
2022-11-23T19:20:31.245Z,88.80
2022-11-23T19:23:19.370Z,88.70
2022-11-23T19:26:07.612Z,88.70
2022-11-23T19:28:56.691Z,88.70
2022-11-23T19:31:45.215Z,88.80
2022-11-23T19:34:33.851Z,88.80
2022-11-23T19:37:23.959Z,88.80
2022-11-23T19:40:13.564Z,88.70
2022-11-23T19:43:02.077Z,88.70
2022-11-23T19:45:55.391Z,88.70
2022-11-23T19:48:43.959Z,88.70
2022-11-23T19:51:32.532Z,88.80
2022-11-23T19:54:22.710Z,88.70
2022-11-23T19:57:10.962Z,88.70
2022-11-23T19:59:58.988Z,88.60
2022-11-23T20:02:47.669Z,88.70
2022-11-23T20:05:36.734Z,88.70
2022-11-23T20:08:25.252Z,88.70
2022-11-23T20:11:17.187Z,88.70
2022-11-23T20:14:05.932Z,88.70
2022-11-23T20:16:56.059Z,88.70
2022-11-23T20:19:44.566Z,88.70
2022-11-23T20:22:33.743Z,88.70
2022-11-23T20:25:22.540Z,88.70
2022-11-23T20:28:14.600Z,88.70
2022-11-23T20:31:05.235Z,88.80
2022-11-23T20:33:54.362Z,88.80
2022-11-23T20:36:43.000Z,88.70
2022-11-23T20:39:35.817Z,88.70
2022-11-23T20:42:24.408Z,88.80
2022-11-23T20:45:14.126Z,88.80
2022-11-23T20:48:02.599Z,88.80
2022-11-23T20:50:53.131Z,88.90
2022-11-23T20:53:41.805Z,88.80
2022-11-23T20:56:30.567Z,88.80
2022-11-23T20:59:19.840Z,88.80
2022-11-23T21:02:10.472Z,88.80
2022-11-23T21:04:59.524Z,88.80
2022-11-23T21:07:49.378Z,88.80
2022-11-23T21:10:55.562Z,88.80
2022-11-23T21:14:00.995Z,88.80
2022-11-23T21:16:56.351Z,88.80
2022-11-23T21:19:46.779Z,89.20
2022-11-23T21:22:36.082Z,88.70
2022-11-23T21:25:24.512Z,88.70
2022-11-23T21:28:12.872Z,88.70
2022-11-23T21:31:08.761Z,88.80
2022-11-23T21:34:05.073Z,88.70
2022-11-23T21:36:56.393Z,88.70
2022-11-23T21:39:51.145Z,88.80
2022-11-23T21:42:41.050Z,88.80
2022-11-23T21:45:30.234Z,88.70
2022-11-23T21:48:18.585Z,88.80
2022-11-23T21:51:08.630Z,88.80
2022-11-23T21:53:59.402Z,88.70
2022-11-23T21:56:48.547Z,88.70
2022-11-23T21:59:36.947Z,88.70
2022-11-23T22:02:25.325Z,88.70
2022-11-23T22:05:13.841Z,88.80
2022-11-23T22:11:14.832Z,88.80
2022-11-23T22:14:05.327Z,88.80
2022-11-23T22:16:54.640Z,88.70
2022-11-23T22:19:43.517Z,89.20
2022-11-23T22:22:32.235Z,88.70
2022-11-23T22:25:21.722Z,88.70
2022-11-23T22:28:11.074Z,88.70
2022-11-23T22:30:59.713Z,88.70
2022-11-23T22:33:48.090Z,88.70
2022-11-23T22:36:36.703Z,88.70
2022-11-23T22:39:25.125Z,88.70
2022-11-23T22:42:15.070Z,88.70
2022-11-23T22:45:04.732Z,88.70
2022-11-23T22:47:53.272Z,88.70
2022-11-23T22:50:41.599Z,88.70
2022-11-23T22:53:30.682Z,88.60
2022-11-23T22:56:20.862Z,88.70
2022-11-23T22:59:09.398Z,88.60
2022-11-23T23:01:59.019Z,88.60
2022-11-23T23:04:48.005Z,88.60
2022-11-23T23:07:36.440Z,88.70
2022-11-23T23:10:25.047Z,88.70
2022-11-23T23:13:13.822Z,88.60
2022-11-23T23:16:03.276Z,88.70
2022-11-23T23:18:53.375Z,88.60
2022-11-23T23:21:42.307Z,88.70
2022-11-23T23:24:30.843Z,88.70
2022-11-23T23:27:19.542Z,88.70
2022-11-23T23:30:08.786Z,88.70
2022-11-23T23:32:58.231Z,88.70
2022-11-23T23:35:48.515Z,88.60
2022-11-23T23:38:37.579Z,88.70
2022-11-23T23:41:26.265Z,88.70
2022-11-23T23:44:14.711Z,88.80
2022-11-23T23:47:03.193Z,88.80
2022-11-23T23:49:51.580Z,88.70
2022-11-23T23:52:41.398Z,88.80
2022-11-23T23:55:29.510Z,88.80
2022-11-23T23:58:17.939Z,88.70
